Vixen, Louisiana
Current Conditions -  °F | °C
As of 5:53 AM on Saturday 20 Dec 2014 (Local Time) from KMLU Reporting Station
Haze Haze  
Wind Chill: 37°   Ceiling: Unl
Heat Index: 40°   Visibility: 6mi
Dew Point: 39°   Wind: 5mph
Humidity: 97%   Direction: 10°N
Pressure: 30.22"   Gusts: NA
Location:  32.1631°N, 92.1971°W
Report Text: KMLU 201153Z 01004KT 6SM BR CLR 04/04 A3022 RMK AO2 SLP233 70059 T00440039 10078 20039 53008
Loading
Personal Weather Stations






























Interactive Weather Map New forecast layout! Learn more

10-Day Weather Forecast

Advertisements
Track Severe Weather on mobile